createdAt,value
2019-02-28T00:04:23.576Z,11.53
2019-02-28T00:10:18.589Z,11.55
2019-02-28T00:16:13.651Z,18.91
2019-02-28T00:22:11.309Z,11.77
2019-02-28T00:28:03.589Z,8.8
2019-02-28T00:33:58.655Z,13
2019-02-28T00:39:53.633Z,7.69
2019-02-28T00:45:48.623Z,14.48
2019-02-28T00:51:43.653Z,10.36
2019-02-28T00:57:38.623Z,8.83
2019-02-28T01:03:33.671Z,8.36
2019-02-28T01:09:30.057Z,11.12
2019-02-28T01:15:23.640Z,10.59
2019-02-28T01:21:23.603Z,10.07
2019-02-28T01:27:13.666Z,10.63
2019-02-28T01:33:08.709Z,11.82
2019-02-28T01:39:03.664Z,9.52
2019-02-28T01:44:58.658Z,10.29
2019-02-28T01:50:53.737Z,10.58
2019-02-28T01:56:48.674Z,8.68
2019-02-28T02:02:43.689Z,10.44
2019-02-28T02:08:38.674Z,10.3
2019-02-28T02:14:33.691Z,10.23
2019-02-28T02:20:28.707Z,9.93
2019-02-28T02:26:23.693Z,9.49
2019-02-28T02:32:18.726Z,10.72
2019-02-28T02:38:13.710Z,15.7
2019-02-28T02:44:08.715Z,23.81
2019-02-28T02:50:03.712Z,21.25
2019-02-28T02:56:03.440Z,21.91
2019-02-28T03:01:56.116Z,20.23
2019-02-28T03:07:48.751Z,17.77
2019-02-28T03:13:44.158Z,18.99
2019-02-28T03:19:38.801Z,14.8
2019-02-28T03:25:33.759Z,19.01
2019-02-28T03:31:28.766Z,12.89
2019-02-28T03:37:23.768Z,13.19
2019-02-28T03:43:18.774Z,11.96
2019-02-28T03:49:13.807Z,13.91
2019-02-28T03:55:08.766Z,11.84
2019-02-28T04:01:08.541Z,15.74
2019-02-28T04:06:58.810Z,10.33
2019-02-28T04:12:53.801Z,13.51
2019-02-28T04:18:48.783Z,10.29
2019-02-28T04:24:46.200Z,9.93
2019-02-28T04:30:42.158Z,10.53
2019-02-28T04:36:35.675Z,13.06
2019-02-28T04:42:28.903Z,10.36
2019-02-28T04:48:23.857Z,9.2
2019-02-28T04:54:18.821Z,8.28
2019-02-28T05:00:13.870Z,12.23
2019-02-28T05:06:08.859Z,10.33
2019-02-28T05:12:05.213Z,9.06
2019-02-28T05:17:58.865Z,11.16
2019-02-28T05:23:53.850Z,8.46
2019-02-28T05:29:48.866Z,9.98
2019-02-28T05:35:43.857Z,12.13
2019-02-28T05:41:38.869Z,11.01
2019-02-28T05:47:41.493Z,14.14
2019-02-28T05:53:28.897Z,9.58
2019-02-28T05:59:27.153Z,10.27
2019-02-28T06:05:18.910Z,15.13
2019-02-28T06:11:15.283Z,11.31
2019-02-28T06:17:08.911Z,9.9
2019-02-28T06:23:06.241Z,15.69
2019-02-28T06:28:58.914Z,10.83
2019-02-28T06:34:53.936Z,12.44
2019-02-28T06:40:48.930Z,14.32
2019-02-28T06:46:44.006Z,12.7
2019-02-28T06:52:38.938Z,16.08
2019-02-28T06:58:34.022Z,11.23
2019-02-28T07:04:28.970Z,14.77
2019-02-28T07:10:23.958Z,18.78
2019-02-28T07:16:18.947Z,16.64
2019-02-28T07:22:19.113Z,13.74
2019-02-28T07:28:08.997Z,14.38
2019-02-28T07:34:03.971Z,15.08
2019-02-28T07:39:58.959Z,16.66
2019-02-28T07:45:53.967Z,18.99
2019-02-28T07:51:48.965Z,18.6
2019-02-28T07:57:44.018Z,15.57
2019-02-28T08:03:38.984Z,21.28
2019-02-28T08:09:36.719Z,25.41
2019-02-28T08:15:28.992Z,26.76
2019-02-28T08:21:24.015Z,18.23
2019-02-28T08:27:19.034Z,26.77
2019-02-28T08:33:16.243Z,24.75
2019-02-28T08:39:09.756Z,26.06
2019-02-28T08:45:04.050Z,28.15
2019-02-28T08:50:59.052Z,33.33
2019-02-28T08:56:54.039Z,31.04
2019-02-28T09:02:52.113Z,24.62
2019-02-28T09:08:44.054Z,30.52
2019-02-28T09:14:39.041Z,32.55
2019-02-28T09:20:34.067Z,29.21
2019-02-28T09:26:31.210Z,33.71
2019-02-28T09:32:24.121Z,30.57
2019-02-28T09:38:19.077Z,35.91
2019-02-28T09:44:14.135Z,41.09
2019-02-28T09:50:09.074Z,37.92
2019-02-28T09:56:08.818Z,54.16
2019-02-28T10:02:01.505Z,51.09
2019-02-28T10:07:54.100Z,64.69
2019-02-28T10:13:49.440Z,66.64
2019-02-28T10:19:45.915Z,68.21
2019-02-28T10:25:43.203Z,59.79
2019-02-28T10:31:36.391Z,56.58
2019-02-28T10:37:29.180Z,62.59
2019-02-28T10:43:24.156Z,54.7
2019-02-28T10:49:21.022Z,49.14
2019-02-28T10:55:14.137Z,50.55
2019-02-28T11:01:09.133Z,50.96
2019-02-28T11:07:04.155Z,50.69
2019-02-28T11:12:59.152Z,46.96
2019-02-28T11:18:54.136Z,54.25
2019-02-28T11:24:49.148Z,54.77
2019-02-28T11:30:45.337Z,56.32
2019-02-28T11:36:39.171Z,60.85
2019-02-28T11:42:34.166Z,66.84
2019-02-28T11:48:29.190Z,73.02
2019-02-28T11:54:24.215Z,65.23
2019-02-28T12:00:19.197Z,70.34
2019-02-28T12:06:14.192Z,65.64
2019-02-28T12:12:10.376Z,69.49
2019-02-28T12:18:04.865Z,62.66
2019-02-28T12:24:00.544Z,64.07
2019-02-28T12:29:54.223Z,73.11
2019-02-28T12:35:49.254Z,60.28
2019-02-28T12:41:44.233Z,61.35
2019-02-28T12:47:41.498Z,56.94
2019-02-28T12:53:34.241Z,60.71
2019-02-28T12:59:29.289Z,53.72
2019-02-28T13:05:24.337Z,56.8
2019-02-28T13:11:19.253Z,62.53
2019-02-28T13:17:16.074Z,54.26
2019-02-28T13:23:09.284Z,55.62
2019-02-28T13:29:04.331Z,144.29
2019-02-28T13:35:02.834Z,56.82
2019-02-28T13:40:55.179Z,51.56
2019-02-28T13:46:49.286Z,51.2
2019-02-28T13:52:44.329Z,51.84
2019-02-28T13:58:39.296Z,50.98
2019-02-28T14:04:34.283Z,53.2
2019-02-28T14:10:29.482Z,50.37
2019-02-28T14:16:26.720Z,46.86
2019-02-28T14:22:19.314Z,43.89
2019-02-28T14:28:14.319Z,41.36
2019-02-28T14:34:09.303Z,44.29
2019-02-28T14:40:04.344Z,42.06
2019-02-28T14:45:59.393Z,41.64
2019-02-28T14:51:54.348Z,38.55
2019-02-28T14:57:49.724Z,39.75
2019-02-28T15:03:44.343Z,35.81
2019-02-28T15:09:39.350Z,31.41
2019-02-28T15:15:36.020Z,25.51
2019-02-28T15:21:29.365Z,22.61
2019-02-28T15:27:24.380Z,27.53
2019-02-28T15:33:19.377Z,21.94
2019-02-28T15:39:17.017Z,17.76
2019-02-28T15:45:09.400Z,15.29
2019-02-28T15:51:04.407Z,11.77
2019-02-28T15:56:59.453Z,13.96
2019-02-28T16:02:54.416Z,17.56
2019-02-28T16:08:49.415Z,16.16
2019-02-28T16:14:44.417Z,14.08
2019-02-28T16:20:39.430Z,12.27
2019-02-28T16:26:34.435Z,9.88
2019-02-28T16:32:29.985Z,15.97
2019-02-28T16:38:24.451Z,9.71
2019-02-28T16:44:19.525Z,15.12
2019-02-28T16:50:15.267Z,11.23
2019-02-28T16:56:09.506Z,12.38
2019-02-28T17:02:04.476Z,13.02
2019-02-28T17:07:59.478Z,15.11
2019-02-28T17:13:54.516Z,12.34
2019-02-28T17:19:49.486Z,15.33
2019-02-28T17:25:44.499Z,15.51
2019-02-28T17:31:39.521Z,20.2
2019-02-28T17:37:34.493Z,15.92
2019-02-28T17:43:29.515Z,22.97
2019-02-28T17:49:26.361Z,22.8
2019-02-28T17:55:19.536Z,22.37
2019-02-28T18:01:14.525Z,18.27
2019-02-28T18:07:09.531Z,25.02
2019-02-28T18:13:04.539Z,30.52
2019-02-28T18:18:59.561Z,28.07
2019-02-28T18:24:54.538Z,25.21
2019-02-28T18:30:49.552Z,21.49
2019-02-28T18:36:44.556Z,25.56
2019-02-28T18:42:39.558Z,21.93
2019-02-28T18:48:34.602Z,26.8
2019-02-28T18:54:29.580Z,23.87
2019-02-28T19:00:24.600Z,25.15
2019-02-28T19:06:19.611Z,27.4
2019-02-28T19:12:14.588Z,26.32
2019-02-28T19:18:09.605Z,20.95
2019-02-28T19:24:04.608Z,24.34
2019-02-28T19:29:59.595Z,24.13
2019-02-28T19:35:54.619Z,23.7
2019-02-28T19:41:49.629Z,22.46
2019-02-28T19:47:44.610Z,22.92
2019-02-28T19:53:39.635Z,25.36
2019-02-28T19:59:34.666Z,26.2
2019-02-28T20:05:29.643Z,23.14
2019-02-28T20:11:24.654Z,33.65
2019-02-28T20:17:19.642Z,22.78
2019-02-28T20:23:14.680Z,23.57
2019-02-28T20:29:09.664Z,19.48
2019-02-28T20:35:04.644Z,22.22
2019-02-28T20:40:59.677Z,21.17
2019-02-28T20:46:54.689Z,20.91
2019-02-28T20:52:49.658Z,23.07
2019-02-28T20:58:44.729Z,24.87
2019-02-28T21:04:39.709Z,30.23
2019-02-28T21:10:34.731Z,29.04
2019-02-28T21:16:29.691Z,28.42
2019-02-28T21:22:24.710Z,25.05
2019-02-28T21:28:19.709Z,28.86
2019-02-28T21:34:14.706Z,22.15
2019-02-28T21:40:09.729Z,25.62
2019-02-28T21:46:04.734Z,26.13
2019-02-28T21:51:59.761Z,28.67
2019-02-28T21:57:54.744Z,24.67
2019-02-28T22:03:49.765Z,21.75
2019-02-28T22:09:44.743Z,22.7
2019-02-28T22:15:39.794Z,20.97
2019-02-28T22:21:34.770Z,21.98
2019-02-28T22:27:29.798Z,18.07
2019-02-28T22:33:24.755Z,20.33
2019-02-28T22:39:19.764Z,23.06
2019-02-28T22:45:14.819Z,19.66
2019-02-28T22:51:09.785Z,28.32
2019-02-28T22:57:04.772Z,19.91
2019-02-28T23:02:59.781Z,21.46
2019-02-28T23:08:54.783Z,19.27
2019-02-28T23:14:49.814Z,19.13
2019-02-28T23:20:44.797Z,23.1
2019-02-28T23:26:39.843Z,22.25
2019-02-28T23:32:34.813Z,22.07
2019-02-28T23:38:29.840Z,27.31
2019-02-28T23:44:24.818Z,26.71
2019-02-28T23:50:19.827Z,24.43
2019-02-28T23:56:14.828Z,27.49
